YNRB weather

Narembeen Airport
Western Australia, Australia

Public forecast

Using degrees Celsius for public forecast. Weather courtesy of forecast.io.

METAR (pilot weather report)

Closest report is Perth International Airport, 125.2 nm (231.8 km) W. Retrieved 2019/04/18 23:30 UTC (27 minutes ago):

YPPH 182330Z 19014KT 9999 FEW012 SCT020 BKN061 12/10 Q1014 INTER 2330/0230 23025G40KT 3000 SHRAGS BKN015

TAF (pilot weather forecast)

Closest forecast is Perth International Airport, 125.2 nm (231.8 km) W. Retrieved 2019/04/18 18:00 UTC (6 hours ago):

TAF YPPH 181710Z 1818/1924 23014G24KT 9999 -SHRA SCT015 BKN020 FM190200 23014G28KT 9999 -SHRA BKN035 FM191600 17007KT 9999 -SHRA BKN035 TEMPO 1818/1821 VRB25G40KT 2000 SHRA BKN008 INTER 1821/1916 23025G40KT 3000 SHRAGS BKN015